createdAt,value
2018-10-17T00:00:47.827Z,88.88
2018-10-17T00:03:16.259Z,88.10
2018-10-17T00:05:44.694Z,88.81
2018-10-17T00:08:13.133Z,87.44
2018-10-17T00:10:41.594Z,86.02
2018-10-17T00:13:10.218Z,85.94
2018-10-17T00:15:38.675Z,85.70
2018-10-17T00:18:07.157Z,84.58
2018-10-17T00:20:35.596Z,85.28
2018-10-17T00:23:04.099Z,85.24
2018-10-17T00:25:32.533Z,85.77
2018-10-17T00:28:00.977Z,84.97
2018-10-17T00:30:30.024Z,85.32
2018-10-17T00:32:58.551Z,85.55
2018-10-17T00:35:27.025Z,85.24
2018-10-17T00:37:56.106Z,86.02
2018-10-17T00:40:25.059Z,85.97
2018-10-17T00:42:54.575Z,86.45
2018-10-17T00:45:23.005Z,86.22
2018-10-17T00:47:51.537Z,85.41
2018-10-17T00:50:20.027Z,85.32
2018-10-17T00:52:48.571Z,85.42
2018-10-17T00:55:17.228Z,85.14
2018-10-17T00:59:11.422Z,85.53
2018-10-17T01:01:40.330Z,86.00
2018-10-17T01:04:09.244Z,85.72
2018-10-17T01:06:38.285Z,85.79
2018-10-17T01:09:09.554Z,86.31
2018-10-17T01:11:39.329Z,85.81
2018-10-17T01:14:08.272Z,86.08
2018-10-17T01:16:36.691Z,86.42
2018-10-17T01:19:05.841Z,85.58
2018-10-17T01:21:35.801Z,86.07
2018-10-17T01:24:04.474Z,86.07
2018-10-17T01:26:33.227Z,86.97
2018-10-17T01:29:02.076Z,86.82
2018-10-17T01:31:30.670Z,86.57
2018-10-17T01:33:59.155Z,85.62
2018-10-17T01:36:27.599Z,85.36
2018-10-17T01:38:56.056Z,85.99
2018-10-17T01:41:24.487Z,86.12
2018-10-17T01:43:52.939Z,85.76
2018-10-17T01:46:21.364Z,85.66
2018-10-17T01:48:52.633Z,85.89
2018-10-17T01:51:21.136Z,86.30
2018-10-17T01:53:49.612Z,85.68
2018-10-17T01:56:18.067Z,86.69
2018-10-17T01:58:46.521Z,85.94
2018-10-17T02:01:15.013Z,86.04
2018-10-17T02:03:43.463Z,85.57
2018-10-17T02:06:11.966Z,85.71
2018-10-17T02:08:40.442Z,86.57
2018-10-17T02:11:09.808Z,85.80
2018-10-17T02:13:38.195Z,85.29
2018-10-17T02:16:06.673Z,85.93
2018-10-17T02:18:35.190Z,85.70
2018-10-17T02:21:03.653Z,85.56
2018-10-17T02:23:32.183Z,86.46
2018-10-17T02:26:00.659Z,86.04
2018-10-17T02:28:29.977Z,86.27
2018-10-17T02:30:59.143Z,87.01
2018-10-17T02:33:27.656Z,86.62
2018-10-17T02:35:56.129Z,85.74
2018-10-17T02:38:25.373Z,86.61
2018-10-17T02:40:53.878Z,85.91
2018-10-17T02:43:22.423Z,85.36
2018-10-17T02:45:51.867Z,86.38
2018-10-17T02:48:20.327Z,85.83
2018-10-17T02:50:48.944Z,85.96
2018-10-17T02:53:17.504Z,85.88
2018-10-17T02:55:45.919Z,86.66
2018-10-17T02:59:38.847Z,86.36
2018-10-17T03:02:07.308Z,86.79
2018-10-17T03:04:35.752Z,87.00
2018-10-17T03:07:04.361Z,86.29
2018-10-17T03:09:33.520Z,86.71
2018-10-17T03:12:01.969Z,86.07
2018-10-17T03:14:30.479Z,85.65
2018-10-17T03:16:59.095Z,86.03
2018-10-17T03:19:27.561Z,86.11
2018-10-17T03:21:56.036Z,85.30
2018-10-17T03:24:24.499Z,85.27
2018-10-17T03:26:52.988Z,84.70
2018-10-17T03:29:21.502Z,85.94
2018-10-17T03:31:49.976Z,87.46
2018-10-17T03:34:18.440Z,86.38
2018-10-17T03:36:47.114Z,87.26
2018-10-17T03:39:15.558Z,86.41
2018-10-17T03:41:44.003Z,85.93
2018-10-17T03:44:12.453Z,85.74
2018-10-17T03:46:43.946Z,85.73
2018-10-17T03:49:12.534Z,85.73
2018-10-17T03:51:41.880Z,85.22
2018-10-17T03:54:11.471Z,84.50
2018-10-17T03:56:39.964Z,85.85
2018-10-17T03:59:08.519Z,86.08
2018-10-17T04:01:37.500Z,86.08
2018-10-17T04:04:06.805Z,86.00
2018-10-17T04:06:35.213Z,85.08
2018-10-17T04:09:05.558Z,86.01
2018-10-17T04:11:33.993Z,86.66
2018-10-17T04:14:02.484Z,86.66
2018-10-17T04:16:31.444Z,87.19
2018-10-17T04:19:00.157Z,87.32
2018-10-17T04:21:28.671Z,87.05
2018-10-17T04:23:57.126Z,86.97
2018-10-17T04:26:25.640Z,85.65
2018-10-17T04:28:54.747Z,85.88
2018-10-17T04:31:23.227Z,85.16
2018-10-17T04:33:52.301Z,85.67
2018-10-17T04:36:20.805Z,85.32
2018-10-17T04:38:50.013Z,85.29
2018-10-17T04:41:18.492Z,85.12
2018-10-17T04:43:46.903Z,85.46
2018-10-17T04:46:15.425Z,86.11
2018-10-17T04:48:45.134Z,86.21
2018-10-17T04:51:13.665Z,85.97
2018-10-17T04:53:42.092Z,85.06
2018-10-17T04:56:11.171Z,85.17
2018-10-17T04:58:39.627Z,86.74
2018-10-17T05:01:08.178Z,86.01
2018-10-17T05:03:36.664Z,86.86
2018-10-17T05:06:05.495Z,86.72
2018-10-17T05:08:33.971Z,85.49
2018-10-17T05:11:02.552Z,86.10
2018-10-17T05:13:31.259Z,85.97
2018-10-17T05:15:59.747Z,86.37
2018-10-17T05:18:29.803Z,86.72
2018-10-17T05:20:58.307Z,86.82
2018-10-17T05:23:26.862Z,86.57
2018-10-17T05:25:55.345Z,86.12
2018-10-17T05:28:23.800Z,85.64
2018-10-17T05:30:52.399Z,87.26
2018-10-17T05:33:20.868Z,87.84
2018-10-17T05:35:51.271Z,86.86
2018-10-17T05:38:20.190Z,87.02
2018-10-17T05:40:49.095Z,86.41
2018-10-17T05:43:17.858Z,86.10
2018-10-17T05:45:46.732Z,85.54
2018-10-17T05:48:16.070Z,85.19
2018-10-17T05:50:44.637Z,85.13
2018-10-17T05:53:14.228Z,86.32
2018-10-17T05:55:43.578Z,86.42
2018-10-17T05:58:13.084Z,85.58
2018-10-17T06:00:41.597Z,86.71
2018-10-17T06:03:11.254Z,87.12
2018-10-17T06:05:39.882Z,87.65
2018-10-17T06:08:11.024Z,87.75
2018-10-17T06:10:39.726Z,87.28
2018-10-17T06:13:08.552Z,86.22
2018-10-17T06:15:37.212Z,86.51
2018-10-17T06:18:06.163Z,86.18
2018-10-17T06:20:34.761Z,86.10
2018-10-17T06:23:03.254Z,86.25
2018-10-17T06:25:32.389Z,85.89
2018-10-17T06:28:01.468Z,85.21
2018-10-17T06:30:29.964Z,84.76
2018-10-17T06:32:58.445Z,83.71
2018-10-17T06:35:26.859Z,85.09
2018-10-17T06:37:55.375Z,85.27
2018-10-17T06:40:23.845Z,85.18
2018-10-17T06:42:52.329Z,85.23
2018-10-17T06:45:20.952Z,85.22
2018-10-17T06:47:49.652Z,84.88
2018-10-17T06:50:18.183Z,85.02
2018-10-17T06:52:46.661Z,83.59
2018-10-17T06:55:15.213Z,83.52
2018-10-17T06:57:43.698Z,81.57
2018-10-17T07:00:12.354Z,83.41
2018-10-17T07:02:40.864Z,80.23
2018-10-17T07:05:10.579Z,80.77
2018-10-17T07:07:39.709Z,84.71
2018-10-17T07:10:08.140Z,83.61
2018-10-17T07:12:36.664Z,82.63
2018-10-17T07:15:06.285Z,81.79
2018-10-17T07:17:34.939Z,83.61
2018-10-17T07:20:03.484Z,79.61
2018-10-17T07:22:32.552Z,82.71
2018-10-17T07:25:01.098Z,84.66
2018-10-17T07:27:29.827Z,82.31
2018-10-17T07:29:58.328Z,80.77
2018-10-17T07:32:27.162Z,79.75
2018-10-17T07:34:56.345Z,78.40
2018-10-17T07:37:24.928Z,78.66
2018-10-17T07:39:53.380Z,79.19
2018-10-17T07:42:21.897Z,77.93
2018-10-17T07:44:52.936Z,76.12
2018-10-17T07:47:21.671Z,75.71
2018-10-17T07:49:51.392Z,75.85
2018-10-17T07:52:19.891Z,73.83
2018-10-17T07:54:48.586Z,72.15
2018-10-17T07:57:17.596Z,72.44
2018-10-17T07:59:46.953Z,70.06
2018-10-17T08:02:15.587Z,71.02
2018-10-17T08:04:44.078Z,74.15
2018-10-17T08:07:12.845Z,73.55
2018-10-17T08:09:41.587Z,75.76
2018-10-17T08:12:10.692Z,73.49
2018-10-17T08:14:42.183Z,74.35
2018-10-17T08:17:11.179Z,72.62
2018-10-17T08:19:39.668Z,71.68
2018-10-17T08:22:08.117Z,70.46
2018-10-17T08:24:36.631Z,71.81
2018-10-17T08:27:05.431Z,68.66
2018-10-17T08:29:33.945Z,68.67
2018-10-17T08:32:02.438Z,67.25
2018-10-17T08:34:30.959Z,65.50
2018-10-17T08:36:59.857Z,63.18
2018-10-17T08:39:27.884Z,66.38
2018-10-17T08:41:56.591Z,67.08
2018-10-17T08:44:26.244Z,64.62
2018-10-17T08:46:54.727Z,66.02
2018-10-17T08:49:23.417Z,64.87
2018-10-17T08:51:51.915Z,67.44
2018-10-17T08:54:20.907Z,66.86
2018-10-17T08:56:49.468Z,65.80
2018-10-17T08:59:17.964Z,66.71
2018-10-17T09:01:46.372Z,65.08
2018-10-17T09:04:14.840Z,63.29
2018-10-17T09:06:43.448Z,64.47
2018-10-17T09:09:13.560Z,64.83
2018-10-17T09:11:42.456Z,64.01
2018-10-17T09:14:11.725Z,62.92
2018-10-17T09:16:40.591Z,63.18
2018-10-17T09:19:09.800Z,60.99
2018-10-17T09:21:38.650Z,60.06
2018-10-17T09:24:07.039Z,58.05
2018-10-17T09:26:35.676Z,57.15
2018-10-17T09:29:05.032Z,57.48
2018-10-17T09:31:34.377Z,59.90
2018-10-17T09:34:02.902Z,56.49
2018-10-17T09:36:31.439Z,55.28
2018-10-17T09:38:59.907Z,56.24
2018-10-17T09:41:28.308Z,57.88
2018-10-17T09:43:57.256Z,58.47
2018-10-17T09:46:28.316Z,56.78
2018-10-17T09:48:56.931Z,56.18
2018-10-17T09:51:25.425Z,55.15
2018-10-17T09:53:54.134Z,55.84
2018-10-17T09:56:22.550Z,55.53
2018-10-17T09:58:51.983Z,53.50
2018-10-17T10:01:25.731Z,53.54
2018-10-17T10:03:54.462Z,52.97
2018-10-17T10:06:23.840Z,54.40
2018-10-17T10:08:52.279Z,54.12
2018-10-17T10:11:20.745Z,54.60
2018-10-17T10:13:49.231Z,52.82
2018-10-17T10:16:17.831Z,52.76
2018-10-17T10:18:47.488Z,53.03
2018-10-17T10:21:15.919Z,54.57
2018-10-17T10:23:44.489Z,54.48
2018-10-17T10:26:13.036Z,53.93
2018-10-17T10:28:41.606Z,53.50
2018-10-17T10:31:10.936Z,55.97
2018-10-17T10:33:39.452Z,54.03
2018-10-17T10:36:08.761Z,54.49
2018-10-17T10:38:37.236Z,55.66
2018-10-17T10:41:06.127Z,52.91
2018-10-17T10:43:34.635Z,55.38
2018-10-17T10:46:03.327Z,53.52
2018-10-17T10:48:32.886Z,53.47
2018-10-17T10:51:01.924Z,52.02
2018-10-17T10:53:30.900Z,52.46
2018-10-17T10:55:59.492Z,51.04
2018-10-17T10:58:28.115Z,49.90
2018-10-17T11:00:56.429Z,50.37
2018-10-17T11:03:25.091Z,49.92
2018-10-17T11:05:53.608Z,51.25
2018-10-17T11:08:22.207Z,52.27
2018-10-17T11:10:51.107Z,51.99
2018-10-17T11:13:19.728Z,50.41
2018-10-17T11:15:49.075Z,49.70
2018-10-17T11:18:17.628Z,51.18
2018-10-17T11:20:46.176Z,51.68
2018-10-17T11:23:15.091Z,50.53
2018-10-17T11:25:43.804Z,51.26
2018-10-17T11:28:12.318Z,49.72
2018-10-17T11:30:40.930Z,47.26
2018-10-17T11:33:09.534Z,47.04
2018-10-17T11:35:38.079Z,46.31
2018-10-17T11:38:06.609Z,46.87
2018-10-17T11:40:35.140Z,47.33
2018-10-17T11:43:04.172Z,47.32
2018-10-17T11:45:32.619Z,47.81
2018-10-17T11:48:01.121Z,47.75
2018-10-17T11:50:30.264Z,45.74
2018-10-17T11:52:58.783Z,44.63
2018-10-17T11:55:27.247Z,45.47
2018-10-17T11:57:55.798Z,44.24
2018-10-17T12:00:24.230Z,44.18
2018-10-17T12:02:52.666Z,44.84
2018-10-17T12:05:21.292Z,44.12
2018-10-17T12:07:49.753Z,44.54
2018-10-17T12:10:18.153Z,44.94
2018-10-17T12:12:47.503Z,44.32
2018-10-17T12:15:16.398Z,42.34
2018-10-17T12:17:44.877Z,42.09
2018-10-17T12:20:14.643Z,40.24
2018-10-17T12:22:44.021Z,42.21
2018-10-17T12:25:13.316Z,42.11
2018-10-17T12:27:41.846Z,42.21
2018-10-17T12:30:13.292Z,41.47
2018-10-17T12:32:41.849Z,41.53
2018-10-17T12:35:10.459Z,41.85
2018-10-17T12:37:38.923Z,40.99
2018-10-17T12:40:08.760Z,40.76
2018-10-17T12:42:37.265Z,40.20
2018-10-17T12:45:05.944Z,40.55
2018-10-17T12:47:34.400Z,40.73
2018-10-17T12:50:02.871Z,38.22
2018-10-17T12:52:31.868Z,38.66
2018-10-17T12:55:00.311Z,38.45
2018-10-17T12:57:28.929Z,38.97
2018-10-17T12:59:57.744Z,39.50
2018-10-17T13:02:26.204Z,39.61
2018-10-17T13:04:54.858Z,38.79
2018-10-17T13:07:23.324Z,40.93
2018-10-17T13:09:52.681Z,39.97
2018-10-17T13:12:21.108Z,39.46
2018-10-17T13:14:49.794Z,37.60
2018-10-17T13:17:18.414Z,37.99
2018-10-17T13:19:46.647Z,39.94
2018-10-17T13:22:15.740Z,40.16
2018-10-17T13:24:44.327Z,40.65
2018-10-17T13:27:12.668Z,41.34
2018-10-17T13:29:41.199Z,42.09
2018-10-17T13:32:09.771Z,42.50
2018-10-17T13:34:38.472Z,43.66
2018-10-17T13:37:07.214Z,43.22
2018-10-17T13:39:35.588Z,43.38
2018-10-17T13:42:04.106Z,42.94
2018-10-17T13:44:32.553Z,42.00
2018-10-17T13:47:01.031Z,41.59
2018-10-17T13:49:29.490Z,42.12
2018-10-17T13:51:57.929Z,43.93
2018-10-17T13:54:26.468Z,43.24
2018-10-17T13:56:54.980Z,42.56
2018-10-17T13:59:23.647Z,43.05
2018-10-17T14:01:52.009Z,42.87
2018-10-17T14:04:20.781Z,43.04
2018-10-17T14:06:49.620Z,41.71
2018-10-17T14:09:18.447Z,41.73
2018-10-17T14:11:46.941Z,41.94
2018-10-17T14:14:15.529Z,43.33
2018-10-17T14:16:44.099Z,42.01
2018-10-17T14:19:12.637Z,41.61
2018-10-17T14:21:41.115Z,42.01
2018-10-17T14:24:10.625Z,42.01
2018-10-17T14:26:39.108Z,42.93
2018-10-17T14:29:07.715Z,43.60
2018-10-17T14:31:36.128Z,43.13
2018-10-17T14:34:05.509Z,41.88
2018-10-17T14:36:33.916Z,41.77
2018-10-17T14:39:02.513Z,42.51
2018-10-17T14:41:30.938Z,42.93
2018-10-17T14:43:59.444Z,43.44
2018-10-17T14:46:29.099Z,43.55
2018-10-17T14:48:57.600Z,43.06
2018-10-17T14:51:26.170Z,43.50
2018-10-17T14:53:54.714Z,44.02
2018-10-17T14:56:23.194Z,43.59
2018-10-17T14:58:52.211Z,43.68
2018-10-17T15:01:22.148Z,43.97
2018-10-17T15:04:21.133Z,44.14
2018-10-17T15:06:49.664Z,44.65
2018-10-17T15:09:18.240Z,45.05
2018-10-17T15:11:47.339Z,45.07
2018-10-17T15:14:16.498Z,45.03
2018-10-17T15:16:45.114Z,45.36
2018-10-17T15:19:13.875Z,46.00
2018-10-17T15:21:43.028Z,46.36
2018-10-17T15:24:12.492Z,45.70
2018-10-17T15:26:40.969Z,46.01
2018-10-17T15:29:10.055Z,46.75
2018-10-17T15:31:38.496Z,46.82
2018-10-17T15:34:07.342Z,46.70
2018-10-17T15:36:36.648Z,46.74
2018-10-17T15:39:07.712Z,47.06
2018-10-17T15:41:36.203Z,47.13
2018-10-17T15:44:04.771Z,47.30
2018-10-17T15:46:33.267Z,48.60
2018-10-17T15:49:02.517Z,49.46
2018-10-17T15:51:31.720Z,50.71
2018-10-17T15:54:00.317Z,50.36
2018-10-17T15:56:28.735Z,50.24
2018-10-17T15:58:57.202Z,51.13
2018-10-17T16:01:25.882Z,51.00
2018-10-17T16:03:54.358Z,52.24
2018-10-17T16:06:23.727Z,53.24
2018-10-17T16:08:52.246Z,53.84
2018-10-17T16:11:20.708Z,54.24
2018-10-17T16:13:50.674Z,54.42
2018-10-17T16:16:19.927Z,55.32
2018-10-17T16:18:48.391Z,55.92
2018-10-17T16:21:17.208Z,56.21
2018-10-17T16:23:46.225Z,57.30
2018-10-17T16:26:14.814Z,57.05
2018-10-17T16:28:43.326Z,58.03
2018-10-17T16:31:12.301Z,57.46
2018-10-17T16:33:40.593Z,58.24
2018-10-17T16:36:09.387Z,58.62
2018-10-17T16:38:37.891Z,60.15
2018-10-17T16:41:06.378Z,61.45
2018-10-17T16:43:35.464Z,62.11
2018-10-17T16:46:03.970Z,63.22
2018-10-17T16:48:32.420Z,64.44
2018-10-17T16:51:00.964Z,66.27
2018-10-17T16:53:29.399Z,66.17
2018-10-17T16:55:57.817Z,67.16
2018-10-17T16:58:26.982Z,67.85
2018-10-17T17:00:55.487Z,68.86
2018-10-17T17:03:24.068Z,68.82
2018-10-17T17:05:54.183Z,70.08
2018-10-17T17:08:22.713Z,70.85
2018-10-17T17:10:51.234Z,71.59
2018-10-17T17:13:20.052Z,71.90
2018-10-17T17:15:48.588Z,71.95
2018-10-17T17:18:17.654Z,72.78
2018-10-17T17:20:46.111Z,73.24
2018-10-17T17:23:14.727Z,73.59
2018-10-17T17:25:43.471Z,73.69
2018-10-17T17:28:13.181Z,74.23
2018-10-17T17:30:41.709Z,74.56
2018-10-17T17:33:10.385Z,75.17
2018-10-17T17:35:38.954Z,76.06
2018-10-17T17:38:07.423Z,76.00
2018-10-17T17:40:35.822Z,75.49
2018-10-17T17:43:04.312Z,75.94
2018-10-17T17:48:01.399Z,76.34
2018-10-17T17:50:30.076Z,76.94
2018-10-17T17:52:58.596Z,77.36
2018-10-17T17:55:27.072Z,77.29
2018-10-17T17:57:56.270Z,77.33
2018-10-17T18:00:24.547Z,77.39
2018-10-17T18:02:53.634Z,78.20
2018-10-17T18:05:22.328Z,78.23
2018-10-17T18:07:51.370Z,78.83
2018-10-17T18:10:19.826Z,78.98
2018-10-17T18:12:48.447Z,78.81
2018-10-17T18:15:16.980Z,79.74
2018-10-17T18:17:45.442Z,80.14
2018-10-17T18:20:13.903Z,80.14
2018-10-17T18:22:42.351Z,80.13
2018-10-17T18:25:10.923Z,80.45
2018-10-17T18:27:40.980Z,80.33
2018-10-17T18:30:10.831Z,80.58
2018-10-17T18:32:39.879Z,80.88
2018-10-17T18:35:08.527Z,80.95
2018-10-17T18:37:37.300Z,80.74
2018-10-17T18:40:06.297Z,81.00
2018-10-17T18:42:35.395Z,81.25
2018-10-17T18:45:04.061Z,81.24
2018-10-17T18:47:32.600Z,81.20
2018-10-17T18:50:01.090Z,81.29
2018-10-17T18:52:29.575Z,81.89
2018-10-17T18:54:58.109Z,81.90
2018-10-17T18:57:26.751Z,81.91
2018-10-17T18:59:55.288Z,81.99
2018-10-17T19:02:23.823Z,82.19
2018-10-17T19:04:52.337Z,82.83
2018-10-17T19:07:20.880Z,83.07
2018-10-17T19:09:49.458Z,82.83
2018-10-17T19:12:18.003Z,83.15
2018-10-17T19:14:46.408Z,83.27
2018-10-17T19:17:15.910Z,83.51
2018-10-17T19:19:44.869Z,82.93
2018-10-17T19:24:47.321Z,83.74
2018-10-17T19:27:24.906Z,83.08
2018-10-17T19:29:53.353Z,83.84
2018-10-17T19:32:23.226Z,83.18
2018-10-17T19:34:52.348Z,84.41
2018-10-17T19:37:20.808Z,83.98
2018-10-17T19:39:49.215Z,84.02
2018-10-17T19:42:18.696Z,84.47
2018-10-17T19:44:47.141Z,84.46
2018-10-17T19:47:15.602Z,84.39
2018-10-17T19:49:44.076Z,83.85
2018-10-17T19:52:12.605Z,83.97
2018-10-17T19:54:41.100Z,84.59
2018-10-17T19:57:09.655Z,84.86
2018-10-17T19:59:37.988Z,85.15
2018-10-17T20:02:07.105Z,85.24
2018-10-17T20:04:35.501Z,84.91
2018-10-17T20:07:03.982Z,85.73
2018-10-17T20:09:32.431Z,85.20
2018-10-17T20:12:01.940Z,85.78
2018-10-17T20:14:31.453Z,85.43
2018-10-17T20:17:01.505Z,85.08
2018-10-17T20:19:31.668Z,85.90
2018-10-17T20:22:00.140Z,85.87
2018-10-17T20:24:28.721Z,86.07
2018-10-17T20:26:59.215Z,85.97
2018-10-17T20:29:27.864Z,86.92
2018-10-17T20:31:56.355Z,86.57
2018-10-17T20:34:25.679Z,86.01
2018-10-17T20:36:54.328Z,86.41
2018-10-17T20:39:22.861Z,85.28
2018-10-17T20:41:52.210Z,85.16
2018-10-17T20:44:21.003Z,85.89
2018-10-17T20:46:49.672Z,85.24
2018-10-17T20:49:18.304Z,85.20
2018-10-17T20:51:46.728Z,85.19
2018-10-17T20:54:15.188Z,85.93
2018-10-17T20:56:43.699Z,85.72
2018-10-17T20:59:13.279Z,85.33
2018-10-17T21:01:41.895Z,85.99
2018-10-17T21:04:11.368Z,86.43
2018-10-17T21:06:40.242Z,87.15
2018-10-17T21:09:12.239Z,86.48
2018-10-17T21:11:40.825Z,86.12
2018-10-17T21:14:09.758Z,86.45
2018-10-17T21:16:38.248Z,86.89
2018-10-17T21:19:07.244Z,86.69
2018-10-17T21:21:35.703Z,86.20
2018-10-17T21:24:04.955Z,86.58
2018-10-17T21:26:33.592Z,86.35
2018-10-17T21:29:02.064Z,86.45
2018-10-17T21:31:30.518Z,86.11
2018-10-17T21:33:58.997Z,86.25
2018-10-17T21:36:27.489Z,86.08
2018-10-17T21:38:56.020Z,86.28
2018-10-17T21:41:24.524Z,86.27
2018-10-17T21:43:53.010Z,86.13
2018-10-17T21:46:21.481Z,86.20
2018-10-17T21:48:50.019Z,85.51
2018-10-17T21:51:18.927Z,86.54
2018-10-17T21:53:47.498Z,86.27
2018-10-17T21:56:16.115Z,86.22
2018-10-17T21:58:44.436Z,86.71
2018-10-17T22:01:13.603Z,87.19
2018-10-17T22:03:42.011Z,86.99
2018-10-17T22:06:11.164Z,87.00
2018-10-17T22:08:39.640Z,86.35
2018-10-17T22:11:08.235Z,86.25
2018-10-17T22:13:37.473Z,86.60
2018-10-17T22:16:07.509Z,86.46
2018-10-17T22:18:36.089Z,86.48
2018-10-17T22:21:05.264Z,86.90
2018-10-17T22:23:33.707Z,87.03
2018-10-17T22:26:02.234Z,87.24
2018-10-17T22:28:31.293Z,86.80
2018-10-17T22:30:59.765Z,87.51
2018-10-17T22:33:28.218Z,87.23
2018-10-17T22:35:56.738Z,86.90
2018-10-17T22:38:25.156Z,86.96
2018-10-17T22:40:53.669Z,87.67
2018-10-17T22:43:22.618Z,86.88
2018-10-17T22:45:51.928Z,87.01
2018-10-17T22:48:20.343Z,87.01
2018-10-17T22:50:48.808Z,87.19
2018-10-17T22:53:17.293Z,86.41
2018-10-17T22:55:46.620Z,87.05
2018-10-17T22:58:15.076Z,87.55
2018-10-17T23:00:43.833Z,86.96
2018-10-17T23:03:12.575Z,86.88
2018-10-17T23:05:41.019Z,86.85
2018-10-17T23:08:10.341Z,86.70
2018-10-17T23:10:38.736Z,86.44
2018-10-17T23:13:07.165Z,85.73
2018-10-17T23:15:36.242Z,86.21
2018-10-17T23:18:04.687Z,86.61
2018-10-17T23:20:33.146Z,86.96
2018-10-17T23:23:01.721Z,86.83
2018-10-17T23:25:30.208Z,87.10
2018-10-17T23:28:00.400Z,87.29
2018-10-17T23:30:28.948Z,87.55
2018-10-17T23:32:57.547Z,87.87
2018-10-17T23:35:26.760Z,87.82
2018-10-17T23:37:55.220Z,87.61
2018-10-17T23:40:23.648Z,87.77
2018-10-17T23:42:52.819Z,87.03
2018-10-17T23:45:21.194Z,87.46
2018-10-17T23:47:50.041Z,87.32
2018-10-17T23:50:18.574Z,88.35
2018-10-17T23:52:47.041Z,87.85
2018-10-17T23:55:15.425Z,88.40
2018-10-17T23:57:44.534Z,88.18
